createdAt,value
2024-03-16T00:00:13.068Z,5.70
2024-03-16T00:02:40.272Z,5.90
2024-03-16T00:05:07.705Z,5.97
2024-03-16T00:07:35.067Z,7.47
2024-03-16T00:10:02.765Z,5.23
2024-03-16T00:12:30.583Z,5.93
2024-03-16T00:14:58.326Z,5.47
2024-03-16T00:17:25.673Z,5.27
2024-03-16T00:19:52.928Z,5.87
2024-03-16T00:22:20.120Z,5.47
2024-03-16T00:24:47.411Z,5.30
2024-03-16T00:27:14.919Z,6.03
2024-03-16T00:29:42.503Z,5.43
2024-03-16T00:32:10.011Z,6.13
2024-03-16T00:34:37.455Z,5.83
2024-03-16T00:37:05.834Z,5.67
2024-03-16T00:39:33.557Z,5.60
2024-03-16T00:42:00.893Z,7.07
2024-03-16T00:44:32.143Z,5.90
2024-03-16T00:47:00.076Z,6.67
2024-03-16T00:49:27.310Z,5.97
2024-03-16T00:51:54.505Z,7.10
2024-03-16T00:54:21.811Z,7.30
2024-03-16T00:56:49.272Z,6.43
2024-03-16T00:59:17.166Z,7.63
2024-03-16T01:01:44.962Z,7.60
2024-03-16T01:04:12.573Z,7.43
2024-03-16T01:06:40.065Z,7.50
2024-03-16T01:09:07.902Z,7.57
2024-03-16T01:11:35.526Z,8.03
2024-03-16T01:14:02.796Z,7.87
2024-03-16T01:16:30.078Z,7.80
2024-03-16T01:18:57.390Z,7.63
2024-03-16T01:21:24.743Z,8.17
2024-03-16T01:23:52.203Z,8.20
2024-03-16T01:26:20.209Z,8.70
2024-03-16T01:28:48.357Z,7.83
2024-03-16T01:31:15.903Z,8.60
2024-03-16T01:33:43.433Z,8.90
2024-03-16T01:36:11.157Z,9.67
2024-03-16T01:38:38.427Z,9.57
2024-03-16T01:41:06.292Z,8.30
2024-03-16T01:43:33.685Z,8.57
2024-03-16T01:46:01.275Z,8.80
2024-03-16T01:48:28.689Z,8.77
2024-03-16T01:50:56.110Z,8.00
2024-03-16T01:53:23.413Z,8.80
2024-03-16T01:55:51.668Z,9.40
2024-03-16T01:58:18.951Z,8.60
2024-03-16T02:00:48.832Z,9.13
2024-03-16T02:03:16.756Z,8.63
2024-03-16T02:05:44.035Z,8.13
2024-03-16T02:08:12.785Z,9.10
2024-03-16T02:10:40.500Z,8.47
2024-03-16T02:13:08.098Z,9.80
2024-03-16T02:15:35.589Z,9.10
2024-03-16T02:18:03.426Z,8.93
2024-03-16T02:20:32.778Z,9.30
2024-03-16T02:23:00.096Z,9.43
2024-03-16T02:25:27.298Z,8.73
2024-03-16T02:27:54.594Z,9.63
2024-03-16T02:30:22.225Z,8.63
2024-03-16T02:32:49.909Z,9.37
2024-03-16T02:35:17.286Z,9.27
2024-03-16T02:37:44.513Z,9.17
2024-03-16T02:40:13.075Z,9.73
2024-03-16T02:42:44.210Z,10.03
2024-03-16T02:45:12.137Z,10.17
2024-03-16T02:47:39.760Z,10.03
2024-03-16T02:50:10.247Z,9.80
2024-03-16T02:52:40.809Z,9.37
2024-03-16T02:55:08.641Z,10.00
2024-03-16T02:57:36.139Z,10.93
2024-03-16T03:00:08.735Z,10.83
2024-03-16T03:02:36.116Z,10.60
2024-03-16T03:05:04.917Z,10.07
2024-03-16T03:07:32.156Z,10.80
2024-03-16T03:09:59.418Z,10.57
2024-03-16T03:12:26.694Z,10.33
2024-03-16T03:14:53.997Z,10.70
2024-03-16T03:17:21.246Z,11.63
2024-03-16T03:19:48.508Z,10.40
2024-03-16T03:22:15.673Z,11.67
2024-03-16T03:24:42.914Z,12.00
2024-03-16T03:27:10.641Z,12.00
2024-03-16T03:29:37.922Z,12.30
2024-03-16T03:32:05.543Z,12.53
2024-03-16T03:34:33.053Z,12.27
2024-03-16T03:37:00.478Z,12.33
2024-03-16T03:39:27.819Z,12.07
2024-03-16T03:41:55.469Z,12.47
2024-03-16T03:44:25.141Z,12.77
2024-03-16T03:46:52.998Z,12.60
2024-03-16T03:49:33.175Z,13.27
2024-03-16T03:52:04.920Z,12.93
2024-03-16T03:54:34.453Z,13.03
2024-03-16T03:57:01.851Z,12.43
2024-03-16T03:59:29.155Z,12.87
2024-03-16T04:01:56.499Z,13.10
2024-03-16T04:04:23.832Z,13.10
2024-03-16T04:06:51.256Z,12.93
2024-03-16T04:09:18.462Z,13.83
2024-03-16T04:11:45.681Z,13.23
2024-03-16T04:14:12.911Z,13.70
2024-03-16T04:16:40.181Z,14.17
2024-03-16T04:19:07.856Z,14.53
2024-03-16T04:21:35.188Z,13.63
2024-03-16T04:24:02.490Z,13.40
2024-03-16T04:26:29.800Z,14.67
2024-03-16T04:28:57.493Z,14.43
2024-03-16T04:31:24.780Z,13.90
2024-03-16T04:33:52.785Z,13.70
2024-03-16T04:36:20.083Z,13.77
2024-03-16T04:38:47.311Z,15.90
2024-03-16T04:41:14.573Z,16.00
2024-03-16T04:43:42.485Z,16.43
2024-03-16T04:46:09.814Z,16.83
2024-03-16T04:48:37.179Z,15.37
2024-03-16T04:51:04.793Z,15.87
2024-03-16T04:53:31.985Z,15.93
2024-03-16T04:55:59.976Z,15.47
2024-03-16T04:58:27.380Z,17.23
2024-03-16T05:00:54.707Z,16.53
2024-03-16T05:03:22.098Z,16.43
2024-03-16T05:05:52.547Z,17.13
2024-03-16T05:08:19.895Z,16.60
2024-03-16T05:10:53.026Z,17.13
2024-03-16T05:13:23.198Z,17.73
2024-03-16T05:15:50.427Z,18.67
2024-03-16T05:18:17.615Z,17.73
2024-03-16T05:20:46.006Z,16.33
2024-03-16T05:23:13.744Z,17.73
2024-03-16T05:25:46.740Z,19.37
2024-03-16T05:28:13.969Z,19.67
2024-03-16T05:30:41.301Z,18.77
2024-03-16T05:33:08.687Z,20.07
2024-03-16T05:35:35.854Z,19.07
2024-03-16T05:38:03.428Z,19.07
2024-03-16T05:40:30.674Z,19.97
2024-03-16T05:42:57.888Z,19.30
2024-03-16T05:45:25.153Z,21.03
2024-03-16T05:47:52.976Z,20.70
2024-03-16T05:50:20.290Z,20.03
2024-03-16T05:52:47.617Z,20.53
2024-03-16T05:55:16.831Z,18.73
2024-03-16T05:57:44.900Z,20.13
2024-03-16T06:00:15.977Z,20.07
2024-03-16T06:02:43.306Z,19.03
2024-03-16T06:05:11.167Z,18.97
2024-03-16T06:07:38.750Z,19.23
2024-03-16T06:10:10.850Z,19.97
2024-03-16T06:12:38.763Z,19.50
2024-03-16T06:15:09.961Z,20.70
2024-03-16T06:17:37.268Z,20.67
2024-03-16T06:20:06.442Z,19.60
2024-03-16T06:22:33.831Z,18.90
2024-03-16T06:25:01.145Z,18.10
2024-03-16T06:27:28.472Z,19.10
2024-03-16T06:29:56.849Z,19.90
2024-03-16T06:32:24.144Z,18.97
2024-03-16T06:34:51.635Z,19.20
2024-03-16T06:37:19.162Z,17.03
2024-03-16T06:39:47.400Z,18.00
2024-03-16T06:42:14.704Z,18.63
2024-03-16T06:44:41.918Z,17.83
2024-03-16T06:47:09.467Z,20.27
2024-03-16T06:49:37.041Z,19.60
2024-03-16T06:52:04.825Z,20.00
2024-03-16T06:54:32.197Z,19.43
2024-03-16T06:56:59.536Z,18.97
2024-03-16T06:59:27.934Z,19.40
2024-03-16T07:01:55.884Z,18.17
2024-03-16T07:04:23.884Z,18.27
2024-03-16T07:06:51.280Z,18.17
2024-03-16T07:09:19.717Z,17.73
2024-03-16T07:11:48.651Z,16.43
2024-03-16T07:14:16.299Z,16.27
2024-03-16T07:16:43.554Z,18.77
2024-03-16T07:19:11.234Z,18.37
2024-03-16T07:21:39.255Z,15.20
2024-03-16T07:24:08.260Z,16.73
2024-03-16T07:26:35.627Z,11.50
2024-03-16T07:29:07.895Z,9.43
2024-03-16T07:31:35.272Z,7.43
2024-03-16T07:34:04.816Z,5.83
2024-03-16T07:36:32.500Z,5.53
2024-03-16T07:38:59.796Z,5.80
2024-03-16T07:41:27.038Z,4.47
2024-03-16T07:43:54.211Z,4.07
2024-03-16T07:46:21.472Z,4.30
2024-03-16T07:48:48.752Z,3.70
2024-03-16T07:51:18.082Z,3.77
2024-03-16T07:53:45.454Z,3.73
2024-03-16T07:56:12.681Z,4.17
2024-03-16T07:58:39.813Z,3.97
2024-03-16T08:01:07.307Z,4.10
2024-03-16T08:03:35.078Z,3.60
2024-03-16T08:06:08.221Z,3.37
2024-03-16T08:08:35.611Z,3.77
2024-03-16T08:11:05.311Z,3.20
2024-03-16T08:13:32.670Z,2.50
2024-03-16T08:16:00.588Z,2.80
2024-03-16T08:18:28.053Z,2.80
2024-03-16T08:20:58.841Z,2.60
2024-03-16T08:23:29.422Z,3.07
2024-03-16T08:25:57.211Z,3.07
2024-03-16T08:28:24.486Z,2.90
2024-03-16T08:30:51.745Z,3.20
2024-03-16T08:33:19.012Z,3.20
2024-03-16T08:35:46.244Z,3.00
2024-03-16T08:38:13.802Z,2.57
2024-03-16T08:40:41.232Z,2.40
2024-03-16T08:43:08.783Z,2.13
2024-03-16T08:45:36.559Z,2.90
2024-03-16T08:48:04.123Z,2.60
2024-03-16T08:50:31.512Z,2.83
2024-03-16T08:52:58.770Z,1.67
2024-03-16T08:55:26.815Z,2.47
2024-03-16T08:57:54.307Z,2.47
2024-03-16T09:00:22.487Z,2.10
2024-03-16T09:02:51.729Z,2.20
2024-03-16T09:05:19.714Z,1.80
2024-03-16T09:07:46.917Z,1.50
2024-03-16T09:10:14.576Z,1.97
2024-03-16T09:12:41.977Z,1.93
2024-03-16T09:15:09.946Z,1.77
2024-03-16T09:17:37.736Z,2.10
2024-03-16T09:20:12.257Z,1.90
2024-03-16T09:22:39.907Z,1.80
2024-03-16T09:25:07.924Z,1.90
2024-03-16T09:27:36.234Z,2.70
2024-03-16T09:30:09.624Z,1.70
2024-03-16T09:32:38.014Z,2.13
2024-03-16T09:35:07.860Z,2.03
2024-03-16T09:37:35.178Z,2.43
2024-03-16T09:40:02.772Z,2.27
2024-03-16T09:42:32.168Z,1.80
